| time (UTC) | temp F | wind direction | speed MPH | gust MPH | rain 1hr in | rain 24hr in | rain mn in | humidity % | barometer mb |
| 20260505213825 | 58 | 261 | 2.0 | 7.0 | 0.00 | 0.00 | 0.00 | 77 | 1017.0 |
| 20260505212803 | 58 | 286 | 1.0 | 2.0 | 0.00 | 0.00 | 0.00 | 80 | 1016.9 |
| 20260505211830 | 58 | 316 | 1.0 | 4.0 | 0.00 | 0.00 | 0.00 | 80 | 1016.9 |
| 20260505210828 | 58 | 282 | 2.0 | 4.0 | 0.00 | 0.00 | 0.00 | 81 | 1017.0 |
| 20260505205828 | 57 | 251 | 0.0 | 3.0 | 0.00 | 0.00 | 0.00 | 82 | 1017.0 |
| 20260505204825 | 57 | 250 | 1.0 | 3.0 | 0.00 | 0.00 | 0.00 | 81 | 1017.0 |
| 20260505203845 | 57 | 0.0 | 2.0 | 0.00 | 0.00 | 0.00 | 83 | 1017.0 | |
| 20260505202823 | 56 | 253 | 1.0 | 2.0 | 0.00 | 0.00 | 0.00 | 87 | 1017.0 |
| 20260505201819 | 55 | 248 | 1.0 | 3.0 | 0.00 | 0.00 | 0.00 | 86 | 1016.9 |
| 20260505200819 | 55 | 257 | 2.0 | 3.0 | 0.00 | 0.00 | 0.00 | 86 | 1017.1 |
| 20260505195815 | 55 | 312 | 1.0 | 2.0 | 0.00 | 0.00 | 0.00 | 86 | 1017.0 |
| 20260505194813 | 54 | 282 | 0.0 | 2.0 | 0.00 | 0.00 | 0.00 | 86 | 1017.1 |
| 20260505193812 | 54 | 270 | 1.0 | 2.0 | 0.00 | 0.00 | 0.00 | 88 | 1017.0 |
| 20260505192830 | 54 | 286 | 0.0 | 2.0 | 0.00 | 0.00 | 0.00 | 88 | 1017.0 |
| 20260505191808 | 53 | 0.0 | 2.0 | 0.00 | 0.00 | 0.00 | 88 | 1017.0 | |
| 20260505190810 | 53 | 286 | 1.0 | 2.0 | 0.00 | 0.00 | 0.00 | 88 | 1016.9 |
| 20260505185824 | 53 | 0.0 | 2.0 | 0.00 | 0.00 | 0.00 | 89 | 1017.0 | |
| 20260505184923 | 52 | 281 | 0.0 | 2.0 | 0.00 | 0.00 | 0.00 | 91 | 1016.9 |
| 20260505183830 | 52 | 281 | 0.0 | 2.0 | 0.00 | 0.00 | 0.00 | 92 | 1016.8 |
| 20260505182852 | 52 | 280 | 1.0 | 2.0 | 0.00 | 0.00 | 0.00 | 92 | 1016.8 |
| 20260505181827 | 51 | 0.0 | 1.0 | 0.00 | 0.00 | 0.00 | 91 | 1016.8 | |
| 20260505180825 | 52 | 255 | 1.0 | 2.0 | 0.00 | 0.00 | 0.00 | 92 | 1016.7 |
| 20260505175825 | 51 | 0.0 | 0.0 | 0.00 | 0.00 | 0.00 | 93 | 1016.7 | |
| 20260505174842 | 51 | 0.0 | 2.0 | 0.00 | 0.00 | 0.00 | 93 | 1016.7 | |
| 20260505173820 | 51 | 255 | 1.0 | 2.0 | 0.00 | 0.00 | 0.00 | 93 | 1016.6 |
| 20260505172838 | 51 | 255 | 1.0 | 2.0 | 0.00 | 0.00 | 0.00 | 92 | 1016.6 |
| 20260505171816 | 50 | 0.0 | 2.0 | 0.00 | 0.00 | 0.00 | 93 | 1016.5 | |
| 20260505170815 | 50 | 255 | 1.0 | 2.0 | 0.00 | 0.00 | 0.00 | 94 | 1016.6 |
| 20260505165811 | 50 | 0.0 | 2.0 | 0.00 | 0.00 | 0.00 | 94 | 1016.6 | |
| 20260505164808 | 50 | 222 | 0.0 | 2.0 | 0.00 | 0.00 | 0.00 | 94 | 1016.6 |
| 20260505163849 | 50 | 242 | 1.0 | 3.0 | 0.00 | 0.00 | 0.00 | 95 | 1016.6 |
| 20260505162803 | 50 | 259 | 2.0 | 3.0 | 0.00 | 0.00 | 0.00 | 95 | 1016.5 |
| 20260505161852 | 49 | 254 | 1.0 | 2.0 | 0.00 | 0.00 | 0.00 | 95 | 1016.5 |
| 20260505160827 | 49 | 259 | 1.0 | 4.0 | 0.00 | 0.00 | 0.00 | 95 | 1016.5 |
| 20260505152817 | 49 | 250 | 1.0 | 2.0 | 0.00 | 0.00 | 0.00 | 95 | 1016.5 |
| 20260505151813 | 49 | 248 | 0.0 | 3.0 | 0.00 | 0.00 | 0.00 | 95 | 1016.4 |
| 20260505150810 | 48 | 208 | 1.0 | 3.0 | 0.00 | 0.00 | 0.00 | 95 | 1016.4 |
| 20260505124851 | 48 | 0.0 | 2.0 | 0.00 | 0.00 | 0.00 | 95 | 1015.8 | |
| 20260505123828 | 48 | 0.0 | 2.0 | 0.00 | 0.00 | 0.00 | 95 | 1015.8 | |
| 20260505122827 | 48 | 0.0 | 2.0 | 0.00 | 0.00 | 0.00 | 95 | 1015.8 | |
| 20260505121845 | 48 | 300 | 0.0 | 1.0 | 0.00 | 0.00 | 0.00 | 95 | 1015.6 |
| 20260505120823 | 48 | 0.0 | 2.0 | 0.00 | 0.00 | 0.00 | 95 | 1015.6 | |
| 20260505115822 | 48 | 300 | 1.0 | 2.0 | 0.00 | 0.00 | 0.00 | 95 | 1015.6 |
| 20260505114840 | 48 | 257 | 1.0 | 2.0 | 0.00 | 0.00 | 0.00 | 95 | 1015.6 |
| 20260505113818 | 48 | 264 | 1.0 | 6.0 | 0.00 | 0.00 | 0.00 | 95 | 1015.6 |
| 20260505112816 | 48 | 258 | 0.0 | 2.0 | 0.00 | 0.00 | 0.00 | 95 | 1015.7 |
| 20260505111835 | 48 | 258 | 1.0 | 2.0 | 0.00 | 0.00 | 0.00 | 95 | 1015.6 |
| 20260505110813 | 48 | 248 | 1.0 | 2.0 | 0.00 | 0.00 | 0.00 | 95 | 1015.7 |
| 20260505101804 | 49 | 257 | 0.0 | 2.0 | 0.00 | 0.00 | 0.00 | 95 | 1015.4 |
| 20260505100832 | 48 | 257 | 0.0 | 2.0 | 0.00 | 0.00 | 0.00 | 95 | 1015.4 |
| 20260505095828 | 48 | 0.0 | 2.0 | 0.00 | 0.00 | 0.00 | 95 | 1015.4 | |
| 20260505094827 | 48 | 257 | 1.0 | 3.0 | 0.00 | 0.00 | 0.00 | 95 | 1015.3 |
| 20260505093829 | 48 | 254 | 2.0 | 4.0 | 0.00 | 0.00 | 0.00 | 94 | 1015.3 |
| 20260505092842 | 49 | 262 | 1.0 | 3.0 | 0.00 | 0.00 | 0.00 | 94 | 1015.3 |
| 20260505091821 | 49 | 274 | 1.0 | 5.0 | 0.00 | 0.00 | 0.00 | 94 | 1015.3 |
| 20260505090817 | 49 | 255 | 1.0 | 3.0 | 0.00 | 0.00 | 0.00 | 94 | 1015.2 |
| 20260505085833 | 49 | 258 | 1.0 | 4.0 | 0.00 | 0.00 | 0.00 | 94 | 1015.2 |
| 20260505084833 | 49 | 257 | 2.0 | 3.0 | 0.00 | 0.00 | 0.00 | 94 | 1015.2 |
| 20260505083811 | 49 | 0.0 | 2.0 | 0.00 | 0.00 | 0.00 | 94 | 1015.3 | |
| 20260505082828 | 49 | 217 | 1.0 | 2.0 | 0.00 | 0.00 | 0.00 | 94 | 1015.3 |
| 20260505081826 | 49 | 244 | 1.0 | 3.0 | 0.00 | 0.00 | 0.00 | 94 | 1015.5 |
| 20260505080806 | 49 | 238 | 1.0 | 3.0 | 0.00 | 0.00 | 0.00 | 93 | 1015.3 |
| 20260505075833 | 49 | 242 | 2.0 | 2.0 | 0.00 | 0.00 | 0.00 | 93 | 1015.4 |
| 20260505074830 | 49 | 245 | 1.0 | 3.0 | 0.00 | 0.00 | 0.00 | 93 | 1015.4 |
| 20260505073828 | 49 | 252 | 1.0 | 8.0 | 0.00 | 0.00 | 0.00 | 93 | 1015.5 |
| 20260505072826 | 49 | 252 | 2.0 | 7.0 | 0.00 | 0.00 | 0.00 | 92 | 1015.5 |
| 20260505071824 | 49 | 249 | 4.0 | 8.0 | 0.00 | 0.00 | 0.00 | 92 | 1015.5 |
| 20260505070824 | 50 | 256 | 2.0 | 9.0 | 0.00 | 0.00 | 0.00 | 91 | 1015.4 |
| 20260505065821 | 50 | 265 | 2.0 | 4.0 | 0.00 | 0.00 | 0.00 | 90 | 1015.4 |
| 20260505064839 | 50 | 253 | 1.0 | 8.0 | 0.00 | 0.00 | 0.00 | 90 | 1015.4 |
| 20260505063858 | 50 | 255 | 1.0 | 2.0 | 0.00 | 0.00 | 0.00 | 90 | 1015.4 |
| 20260505062815 | 50 | 255 | 1.0 | 3.0 | 0.00 | 0.00 | 0.00 | 89 | 1015.3 |
| 20260505061813 | 51 | 246 | 2.0 | 4.0 | 0.00 | 0.00 | 0.00 | 89 | 1015.3 |
| 20260505060812 | 51 | 265 | 1.0 | 2.0 | 0.00 | 0.00 | 0.00 | 88 | 1015.3 |
| 20260505055807 | 51 | 265 | 0.0 | 2.0 | 0.00 | 0.00 | 0.00 | 88 | 1015.4 |
| 20260505054806 | 51 | 0.0 | 2.0 | 0.00 | 0.00 | 0.00 | 88 | 1015.4 | |
| 20260505053824 | 51 | 267 | 1.0 | 2.0 | 0.00 | 0.00 | 0.00 | 88 | 1015.3 |
| 20260505052824 | 51 | 273 | 1.0 | 2.0 | 0.00 | 0.00 | 0.00 | 88 | 1015.2 |
| 20260505051830 | 51 | 261 | 1.0 | 2.0 | 0.00 | 0.00 | 0.00 | 87 | 1015.2 |
| 20260505050828 | 52 | 256 | 1.0 | 3.0 | 0.00 | 0.00 | 0.00 | 87 | 1015.2 |
| 20260505040818 | 53 | 259 | 1.0 | 3.0 | 0.00 | 0.00 | 0.00 | 87 | 1014.7 |
| 20260505035816 | 53 | 259 | 1.0 | 3.0 | 0.00 | 0.00 | 0.00 | 86 | 1014.5 |
| 20260505034813 | 53 | 244 | 1.0 | 4.0 | 0.00 | 0.00 | 0.00 | 86 | 1014.4 |
| 20260505033812 | 53 | 244 | 1.0 | 5.0 | 0.00 | 0.00 | 0.00 | 85 | 1014.3 |
| 20260505032810 | 54 | 251 | 2.0 | 9.0 | 0.00 | 0.00 | 0.00 | 84 | 1014.2 |
| 20260505031828 | 54 | 249 | 4.0 | 9.0 | 0.00 | 0.00 | 0.00 | 84 | 1014.1 |
| 20260505030808 | 55 | 233 | 2.0 | 10.0 | 0.00 | 0.00 | 0.00 | 83 | 1013.9 |
| 20260505025805 | 55 | 246 | 1.0 | 7.0 | 0.00 | 0.00 | 0.00 | 83 | 1013.8 |
| 20260505024802 | 56 | 232 | 2.0 | 7.0 | 0.00 | 0.00 | 0.00 | 82 | 1013.7 |
| 20260505023830 | 57 | 240 | 1.0 | 8.0 | 0.00 | 0.00 | 0.00 | 80 | 1013.6 |
| 20260505022829 | 57 | 265 | 3.0 | 8.0 | 0.00 | 0.00 | 0.00 | 79 | 1013.5 |
| 20260505021848 | 58 | 257 | 2.0 | 9.0 | 0.00 | 0.00 | 0.00 | 78 | 1013.5 |
| 20260505020826 | 58 | 265 | 2.0 | 11.0 | 0.00 | 0.00 | 0.00 | 76 | 1013.5 |
| 20260505015823 | 59 | 271 | 2.0 | 5.0 | 0.00 | 0.00 | 0.00 | 75 | 1013.5 |
| 20260505014841 | 59 | 283 | 2.0 | 9.0 | 0.00 | 0.00 | 0.00 | 74 | 1013.5 |
| 20260505013819 | 60 | 296 | 1.0 | 9.0 | 0.00 | 0.00 | 0.00 | 72 | 1013.5 |
| 20260505012817 | 61 | 301 | 2.0 | 6.0 | 0.00 | 0.00 | 0.00 | 71 | 1013.5 |
| 20260505011816 | 62 | 273 | 2.0 | 10.0 | 0.00 | 0.00 | 0.00 | 71 | 1013.5 |
| 20260505010814 | 63 | 290 | 2.0 | 8.0 | 0.00 | 0.00 | 0.00 | 69 | 1013.6 |
| 20260505005811 | 64 | 303 | 2.0 | 14.0 | 0.00 | 0.00 | 0.00 | 66 | 1013.5 |
| 20260505004829 | 65 | 304 | 2.0 | 15.0 | 0.00 | 0.00 | 0.00 | 63 | 1013.7 |
| 20260505003807 | 67 | 259 | 5.0 | 11.0 | 0.00 | 0.00 | 0.00 | 61 | 1013.6 |
| 20260505002804 | 67 | 293 | 1.0 | 7.0 | 0.00 | 0.00 | 0.00 | 61 | 1013.6 |
| 20260505001844 | 67 | 269 | 2.0 | 10.0 | 0.00 | 0.00 | 0.00 | 64 | 1013.6 |
| 20260505000830 | 67 | 239 | 3.0 | 6.0 | 0.00 | 0.00 | 0.00 | 64 | 1013.7 |
| 20260504235829 | 67 | 266 | 2.0 | 9.0 | 0.00 | 0.00 | 0.00 | 63 | 1013.8 |
| 20260504234828 | 67 | 281 | 2.0 | 6.0 | 0.00 | 0.00 | 0.00 | 61 | 1013.8 |
| 20260504233826 | 68 | 287 | 1.0 | 6.0 | 0.00 | 0.00 | 0.00 | 60 | 1013.9 |
| 20260504232823 | 67 | 286 | 2.0 | 10.0 | 0.00 | 0.00 | 0.00 | 62 | 1013.9 |
| 20260504231821 | 67 | 236 | 4.0 | 11.0 | 0.00 | 0.00 | 0.00 | 63 | 1014.0 |
| 20260504230821 | 67 | 269 | 4.0 | 12.0 | 0.00 | 0.00 | 0.00 | 63 | 1014.1 |
| 20260504225819 | 67 | 258 | 3.0 | 9.0 | 0.00 | 0.00 | 0.00 | 62 | 1014.1 |
| 20260504224815 | 66 | 291 | 2.0 | 4.0 | 0.00 | 0.00 | 0.00 | 62 | 1014.2 |
| 20260504223812 | 65 | 12 | 0.0 | 7.0 | 0.00 | 0.00 | 0.00 | 65 | 1014.4 |
| 20260504222810 | 64 | 274 | 1.0 | 5.0 | 0.00 | 0.00 | 0.00 | 71 | 1014.6 |
| 20260504221808 | 62 | 318 | 2.0 | 10.0 | 0.00 | 0.00 | 0.00 | 72 | 1014.6 |
| 20260504220806 | 61 | 268 | 1.0 | 8.0 | 0.00 | 0.00 | 0.00 | 75 | 1014.7 |
| 20260504215805 | 60 | 261 | 2.0 | 10.0 | 0.00 | 0.00 | 0.00 | 73 | 1014.8 |
| 20260504214804 | 59 | 298 | 1.0 | 3.0 | 0.00 | 0.00 | 0.00 | 75 | 1014.8 |